createdAt,value
2018-04-29T00:01:10.936Z,14.87
2018-04-29T00:03:39.001Z,12.70
2018-04-29T00:06:07.022Z,14.80
2018-04-29T00:08:35.076Z,17.43
2018-04-29T00:11:03.088Z,12.73
2018-04-29T00:13:31.416Z,15.57
2018-04-29T00:15:59.469Z,12.93
2018-04-29T00:18:27.466Z,23.83
2018-04-29T00:20:55.478Z,12.23
2018-04-29T00:23:23.609Z,21.83
2018-04-29T00:25:51.667Z,28.23
2018-04-29T00:28:19.693Z,20.60
2018-04-29T00:30:47.702Z,13.30
2018-04-29T00:33:15.722Z,14.10
2018-04-29T00:35:43.829Z,12.87
2018-04-29T00:38:11.876Z,13.53
2018-04-29T00:40:39.918Z,13.90
2018-04-29T00:43:07.902Z,14.50
2018-04-29T00:45:35.972Z,18.43
2018-04-29T00:48:03.964Z,20.90
2018-04-29T00:50:31.958Z,17.73
2018-04-29T00:52:59.879Z,15.03
2018-04-29T00:55:27.959Z,27.90
2018-04-29T00:57:56.026Z,20.10
2018-04-29T01:00:24.127Z,22.13
2018-04-29T01:02:52.187Z,26.00
2018-04-29T01:05:20.123Z,24.87
2018-04-29T01:07:48.126Z,16.20
2018-04-29T01:10:16.125Z,26.30
2018-04-29T01:12:44.144Z,29.80
2018-04-29T01:15:12.363Z,22.47
2018-04-29T01:17:40.405Z,24.93
2018-04-29T01:20:08.396Z,24.13
2018-04-29T01:22:36.392Z,36.60
2018-04-29T01:25:04.461Z,32.03
2018-04-29T01:27:32.521Z,19.93
2018-04-29T01:30:00.526Z,23.57
2018-04-29T01:32:28.491Z,19.53
2018-04-29T01:34:56.462Z,20.40
2018-04-29T01:37:24.434Z,21.97
2018-04-29T01:39:52.510Z,24.87
2018-04-29T01:42:20.476Z,18.50
2018-04-29T01:44:48.503Z,22.93
2018-04-29T01:47:16.483Z,21.37
2018-04-29T01:49:44.509Z,23.90
2018-04-29T01:52:12.541Z,18.50
2018-04-29T01:54:40.562Z,24.70
2018-04-29T01:57:08.619Z,19.83
2018-04-29T01:59:36.617Z,17.23
2018-04-29T02:02:04.669Z,16.43
2018-04-29T02:04:32.723Z,17.07
2018-04-29T02:07:00.746Z,16.50
2018-04-29T02:09:28.699Z,17.13
2018-04-29T02:11:56.697Z,17.17
2018-04-29T02:14:24.714Z,16.90
2018-04-29T02:16:53.028Z,15.73
2018-04-29T02:19:20.982Z,25.53
2018-04-29T02:21:48.947Z,38.20
2018-04-29T02:24:17.027Z,18.77
2018-04-29T02:26:45.051Z,18.73
2018-04-29T02:29:13.058Z,25.30
2018-04-29T02:31:41.115Z,18.10
2018-04-29T02:34:09.122Z,16.50
2018-04-29T02:36:37.217Z,31.73
2018-04-29T02:39:05.307Z,21.73
2018-04-29T02:41:33.364Z,19.90
2018-04-29T02:44:01.425Z,17.43
2018-04-29T02:46:29.428Z,15.27
2018-04-29T02:48:57.574Z,21.10
2018-04-29T02:51:25.568Z,18.67
2018-04-29T02:53:53.573Z,23.40
2018-04-29T02:56:21.628Z,16.00
2018-04-29T02:58:49.664Z,15.40
2018-04-29T03:04:00.082Z,16.70
2018-04-29T03:06:28.082Z,20.10
2018-04-29T03:08:56.102Z,17.93
2018-04-29T03:11:24.122Z,22.37
2018-04-29T03:13:52.158Z,22.47
2018-04-29T03:16:20.107Z,27.73
2018-04-29T03:18:48.504Z,20.20
2018-04-29T03:21:16.641Z,20.60
2018-04-29T03:23:44.629Z,21.77
2018-04-29T03:26:12.699Z,37.87
2018-04-29T03:28:40.734Z,22.40
2018-04-29T03:31:08.832Z,22.23
2018-04-29T03:33:36.829Z,21.10
2018-04-29T03:36:04.854Z,26.27
2018-04-29T03:38:32.892Z,15.23
2018-04-29T03:41:00.901Z,25.47
2018-04-29T03:43:28.930Z,20.27
2018-04-29T03:45:57.054Z,17.07
2018-04-29T03:48:25.081Z,21.33
2018-04-29T03:50:53.126Z,17.13
2018-04-29T03:53:21.169Z,16.63
2018-04-29T03:55:49.134Z,24.20
2018-04-29T03:58:29.043Z,12.03
2018-04-29T04:01:09.071Z,13.47
2018-04-29T04:03:44.528Z,10.70
2018-04-29T04:06:12.525Z,55.00
2018-04-29T04:08:40.501Z,32.70
2018-04-29T04:11:08.581Z,55.03
2018-04-29T04:13:36.574Z,19.50
2018-04-29T04:16:04.594Z,22.73
2018-04-29T04:18:32.610Z,17.17
2018-04-29T04:21:00.905Z,19.87
2018-04-29T04:23:29.041Z,16.13
2018-04-29T04:25:57.082Z,13.87
2018-04-29T04:28:25.131Z,26.77
2018-04-29T04:30:53.143Z,13.80
2018-04-29T04:33:21.177Z,12.57
2018-04-29T04:35:49.200Z,13.67
2018-04-29T04:38:17.261Z,14.97
2018-04-29T04:40:45.328Z,15.83
2018-04-29T04:43:13.355Z,17.90
2018-04-29T04:45:41.357Z,16.80
2018-04-29T04:48:09.299Z,20.30
2018-04-29T04:50:37.383Z,17.53
2018-04-29T04:53:05.432Z,16.83
2018-04-29T04:55:33.449Z,22.00
2018-04-29T04:58:01.522Z,15.97
2018-04-29T05:00:29.554Z,20.63
2018-04-29T05:02:57.529Z,14.93
2018-04-29T05:05:25.517Z,41.00
2018-04-29T05:07:53.500Z,19.17
2018-04-29T05:10:22.302Z,17.90
2018-04-29T05:12:50.488Z,13.57
2018-04-29T05:15:18.547Z,12.43
2018-04-29T05:17:46.590Z,12.53
2018-04-29T05:20:14.643Z,9.50
2018-04-29T05:22:42.867Z,18.30
2018-04-29T05:25:10.873Z,10.10
2018-04-29T05:27:38.931Z,11.43
2018-04-29T05:30:07.001Z,17.53
2018-04-29T05:32:35.095Z,10.33
2018-04-29T05:35:02.976Z,11.00
2018-04-29T05:37:31.072Z,11.30
2018-04-29T05:39:59.010Z,11.63
2018-04-29T05:42:27.014Z,11.43
2018-04-29T05:44:55.063Z,12.10
2018-04-29T05:47:23.122Z,10.03
2018-04-29T05:49:51.107Z,11.00
2018-04-29T05:52:19.157Z,11.23
2018-04-29T05:54:47.236Z,11.50
2018-04-29T05:57:15.321Z,12.43
2018-04-29T05:59:43.342Z,12.40
2018-04-29T06:02:11.450Z,12.33
2018-04-29T06:04:39.597Z,13.77
2018-04-29T06:07:07.599Z,14.43
2018-04-29T06:09:36.805Z,14.30
2018-04-29T06:12:04.867Z,13.30
2018-04-29T06:14:32.830Z,11.53
2018-04-29T06:17:00.802Z,12.77
2018-04-29T06:19:28.759Z,11.70
2018-04-29T06:21:56.830Z,13.43
2018-04-29T06:24:25.233Z,18.07
2018-04-29T06:26:53.247Z,16.97
2018-04-29T06:29:21.327Z,11.97
2018-04-29T06:31:49.360Z,14.83
2018-04-29T06:34:17.380Z,22.40
2018-04-29T06:36:45.333Z,12.87
2018-04-29T06:39:13.326Z,12.67
2018-04-29T06:41:41.410Z,13.10
2018-04-29T06:44:09.428Z,12.87
2018-04-29T06:46:37.476Z,13.67
2018-04-29T06:49:05.482Z,12.43
2018-04-29T06:51:33.591Z,13.73
2018-04-29T06:54:01.600Z,11.80
2018-04-29T06:56:29.578Z,19.53
2018-04-29T06:58:57.580Z,12.43
2018-04-29T07:01:25.622Z,16.43
2018-04-29T07:03:53.633Z,15.90
2018-04-29T07:06:21.654Z,14.80
2018-04-29T07:08:49.621Z,13.17
2018-04-29T07:11:17.695Z,14.13
2018-04-29T07:13:45.754Z,12.17
2018-04-29T07:16:13.832Z,13.67
2018-04-29T07:18:41.856Z,12.80
2018-04-29T07:21:09.922Z,12.17
2018-04-29T07:23:37.945Z,20.70
2018-04-29T07:26:06.327Z,12.27
2018-04-29T07:28:34.399Z,12.37
2018-04-29T07:31:02.378Z,10.57
2018-04-29T07:33:30.397Z,10.97
2018-04-29T07:35:58.447Z,9.53
2018-04-29T07:38:26.440Z,11.87
2018-04-29T07:40:54.459Z,12.30
2018-04-29T07:43:22.478Z,11.40
2018-04-29T07:45:50.540Z,15.17
2018-04-29T07:48:18.602Z,10.60
2018-04-29T07:50:46.626Z,19.20
2018-04-29T07:53:14.593Z,10.87
2018-04-29T07:55:42.568Z,9.40
2018-04-29T07:58:10.590Z,10.67
2018-04-29T08:00:38.692Z,12.83
2018-04-29T08:03:12.994Z,12.30
2018-04-29T08:05:40.986Z,14.20
2018-04-29T08:08:08.903Z,14.23
2018-04-29T08:10:36.888Z,10.40
2018-04-29T08:13:04.920Z,10.80
2018-04-29T08:15:33.053Z,13.47
2018-04-29T08:18:01.167Z,9.63
2018-04-29T08:20:29.187Z,14.53
2018-04-29T08:22:57.206Z,20.50
2018-04-29T08:25:25.253Z,11.23
2018-04-29T08:27:53.943Z,12.50
2018-04-29T08:30:21.961Z,28.57
2018-04-29T08:32:49.986Z,11.77
2018-04-29T08:35:17.923Z,14.90
2018-04-29T08:37:45.958Z,8.80
2018-04-29T08:40:14.002Z,7.17
2018-04-29T08:42:42.095Z,6.70
2018-04-29T08:45:10.134Z,10.20
2018-04-29T08:47:38.154Z,8.00
2018-04-29T08:50:06.212Z,13.20
2018-04-29T08:52:34.246Z,7.50
2018-04-29T08:55:02.320Z,9.83
2018-04-29T08:57:30.336Z,8.70
2018-04-29T08:59:58.428Z,6.87
2018-04-29T09:02:26.418Z,7.70
2018-04-29T09:04:54.411Z,7.63
2018-04-29T09:07:22.419Z,14.10
2018-04-29T09:09:50.363Z,14.83
2018-04-29T09:12:18.458Z,7.60
2018-04-29T09:14:46.504Z,14.87
2018-04-29T09:17:14.632Z,10.40
2018-04-29T09:19:42.691Z,4.47
2018-04-29T09:22:10.781Z,7.13
2018-04-29T09:24:38.798Z,5.30
2018-04-29T09:27:06.865Z,6.40
2018-04-29T09:29:35.345Z,9.87
2018-04-29T09:32:03.428Z,4.70
2018-04-29T09:34:31.479Z,3.70
2018-04-29T09:36:59.510Z,5.30
2018-04-29T09:39:27.484Z,5.00
2018-04-29T09:41:55.492Z,5.97
2018-04-29T09:44:23.500Z,5.93
2018-04-29T09:46:51.536Z,12.50
2018-04-29T09:49:19.563Z,7.70
2018-04-29T09:51:47.663Z,5.10
2018-04-29T09:54:15.635Z,4.47
2018-04-29T09:56:43.628Z,5.00
2018-04-29T09:59:11.645Z,8.77
2018-04-29T10:01:39.684Z,8.43
2018-04-29T10:04:07.705Z,4.90
2018-04-29T10:06:35.719Z,8.50
2018-04-29T10:09:03.923Z,13.63
2018-04-29T10:11:31.975Z,3.90
2018-04-29T10:13:59.991Z,9.80
2018-04-29T10:16:28.018Z,13.70
2018-04-29T10:18:56.090Z,9.63
2018-04-29T10:21:24.173Z,3.93
2018-04-29T10:23:52.227Z,3.70
2018-04-29T10:26:20.189Z,11.73
2018-04-29T10:28:48.218Z,8.43
2018-04-29T10:31:16.512Z,4.70
2018-04-29T10:33:44.559Z,5.83
2018-04-29T10:36:12.523Z,4.27
2018-04-29T10:38:40.526Z,8.47
2018-04-29T10:41:08.630Z,2.93
2018-04-29T10:43:36.606Z,3.37
2018-04-29T10:46:04.652Z,3.33
2018-04-29T10:48:32.637Z,4.07
2018-04-29T10:51:00.623Z,3.40
2018-04-29T10:53:28.598Z,7.60
2018-04-29T10:55:56.641Z,3.70
2018-04-29T10:58:24.593Z,6.33
2018-04-29T11:00:52.661Z,4.50
2018-04-29T11:03:20.693Z,6.00
2018-04-29T11:05:48.776Z,4.77
2018-04-29T11:08:16.736Z,8.50
2018-04-29T11:10:44.701Z,12.70
2018-04-29T11:13:12.732Z,7.70
2018-04-29T11:15:40.750Z,3.30
2018-04-29T11:18:08.880Z,14.60
2018-04-29T11:20:36.903Z,3.23
2018-04-29T11:23:04.984Z,4.90
2018-04-29T11:25:32.960Z,4.23
2018-04-29T11:28:00.971Z,4.27
2018-04-29T11:30:28.983Z,3.97
2018-04-29T11:32:57.471Z,4.07
2018-04-29T11:35:25.495Z,9.20
2018-04-29T11:37:53.622Z,10.67
2018-04-29T11:40:21.751Z,3.57
2018-04-29T11:42:49.759Z,5.30
2018-04-29T11:45:17.764Z,3.67
2018-04-29T11:47:45.797Z,15.80
2018-04-29T11:50:13.759Z,5.93
2018-04-29T11:52:41.728Z,3.10
2018-04-29T11:55:09.787Z,6.67
2018-04-29T11:57:37.790Z,6.23
2018-04-29T12:00:05.831Z,3.23
2018-04-29T12:02:33.919Z,4.00
2018-04-29T12:05:01.941Z,5.53
2018-04-29T12:07:30.025Z,5.17
2018-04-29T12:09:58.139Z,6.23
2018-04-29T12:12:26.173Z,4.40
2018-04-29T12:14:54.192Z,4.43
2018-04-29T12:17:22.260Z,5.27
2018-04-29T12:19:50.286Z,10.10
2018-04-29T12:22:18.280Z,3.60
2018-04-29T12:24:46.716Z,3.17
2018-04-29T12:27:15.039Z,18.00
2018-04-29T12:29:43.055Z,11.20
2018-04-29T12:32:11.083Z,9.13
2018-04-29T12:34:39.346Z,2.77
2018-04-29T12:37:07.303Z,6.83
2018-04-29T12:39:35.315Z,3.60
2018-04-29T12:42:03.408Z,3.33
2018-04-29T12:44:31.428Z,8.53
2018-04-29T12:46:59.453Z,4.70
2018-04-29T12:49:27.462Z,4.30
2018-04-29T12:51:55.516Z,3.43
2018-04-29T12:54:23.562Z,4.23
2018-04-29T12:56:51.555Z,4.10
2018-04-29T12:59:19.559Z,6.93
2018-04-29T13:01:47.588Z,7.13
2018-04-29T13:04:15.623Z,5.23
2018-04-29T13:06:43.732Z,3.87
2018-04-29T13:09:11.728Z,3.17
2018-04-29T13:11:39.717Z,9.10
2018-04-29T13:14:07.738Z,4.63
2018-04-29T13:16:35.729Z,3.80
2018-04-29T13:19:03.728Z,4.87
2018-04-29T13:21:31.755Z,3.63
2018-04-29T13:23:59.760Z,6.37
2018-04-29T13:26:27.771Z,4.17
2018-04-29T13:28:55.769Z,12.80
2018-04-29T13:31:23.785Z,12.47
2018-04-29T13:33:51.746Z,5.07
2018-04-29T13:36:20.069Z,3.77
2018-04-29T13:38:48.103Z,4.13
2018-04-29T13:41:16.109Z,10.03
2018-04-29T13:43:44.091Z,6.13
2018-04-29T13:46:12.075Z,3.93
2018-04-29T13:48:40.069Z,9.60
2018-04-29T13:51:08.026Z,6.50
2018-04-29T13:53:36.074Z,11.63
2018-04-29T13:56:04.100Z,4.53
2018-04-29T13:58:32.239Z,7.40
2018-04-29T14:01:00.206Z,5.03
2018-04-29T14:03:28.361Z,11.07
2018-04-29T14:05:56.400Z,6.90
2018-04-29T14:08:24.565Z,10.60
2018-04-29T14:10:52.539Z,5.53
2018-04-29T14:13:20.548Z,4.10
2018-04-29T14:15:48.547Z,3.50
2018-04-29T14:18:16.518Z,11.10
2018-04-29T14:20:44.471Z,8.93
2018-04-29T14:23:12.467Z,4.40
2018-04-29T14:25:40.458Z,13.50
2018-04-29T14:28:08.505Z,4.17
2018-04-29T14:30:36.526Z,4.17
2018-04-29T14:33:04.551Z,3.83
2018-04-29T14:35:32.571Z,3.43
2018-04-29T14:38:00.777Z,10.50
2018-04-29T14:40:28.830Z,7.50
2018-04-29T14:42:56.894Z,10.03
2018-04-29T14:45:24.971Z,3.97
2018-04-29T14:47:52.980Z,8.23
2018-04-29T14:50:21.082Z,12.33
2018-04-29T14:52:49.088Z,3.33
2018-04-29T14:55:17.121Z,4.57
2018-04-29T14:57:45.129Z,4.57
2018-04-29T15:00:13.182Z,5.20
2018-04-29T15:02:41.207Z,5.57
2018-04-29T15:05:09.229Z,5.50
2018-04-29T15:07:37.208Z,6.53
2018-04-29T15:10:05.263Z,6.87
2018-04-29T15:12:33.340Z,5.10
2018-04-29T15:15:01.442Z,9.70
2018-04-29T15:17:29.500Z,4.80
2018-04-29T15:19:57.602Z,15.23
2018-04-29T15:22:25.595Z,4.70
2018-04-29T15:24:53.737Z,7.87
2018-04-29T15:27:21.770Z,5.37
2018-04-29T15:29:49.789Z,5.00
2018-04-29T15:32:17.761Z,5.17
2018-04-29T15:34:45.770Z,7.30
2018-04-29T15:37:13.775Z,7.60
2018-04-29T15:39:42.171Z,10.03
2018-04-29T15:42:10.303Z,12.80
2018-04-29T15:44:38.347Z,6.27
2018-04-29T15:47:06.528Z,7.43
2018-04-29T15:49:34.535Z,9.40
2018-04-29T15:52:02.540Z,7.80
2018-04-29T15:54:30.594Z,12.30
2018-04-29T15:56:58.608Z,20.10
2018-04-29T15:59:26.609Z,10.93
2018-04-29T16:01:54.612Z,6.93
2018-04-29T16:04:22.609Z,7.87
2018-04-29T16:06:50.649Z,5.00
2018-04-29T16:09:18.691Z,17.30
2018-04-29T16:11:46.782Z,8.00
2018-04-29T16:14:14.772Z,7.90
2018-04-29T16:16:42.834Z,6.17
2018-04-29T16:19:10.857Z,13.47
2018-04-29T16:21:38.900Z,6.50
2018-04-29T16:24:06.916Z,4.80
2018-04-29T16:26:34.878Z,15.30
2018-04-29T16:29:02.924Z,9.43
2018-04-29T16:31:30.929Z,14.13
2018-04-29T16:33:58.980Z,4.60
2018-04-29T16:36:27.014Z,14.33
2018-04-29T16:38:55.017Z,7.57
2018-04-29T16:41:23.321Z,8.00
2018-04-29T16:43:51.271Z,6.63
2018-04-29T16:46:19.279Z,6.53
2018-04-29T16:48:47.289Z,5.47
2018-04-29T16:51:15.312Z,8.23
2018-04-29T16:53:43.298Z,4.70
2018-04-29T16:56:11.367Z,10.23
2018-04-29T16:58:39.295Z,7.07
2018-04-29T17:01:07.301Z,4.47
2018-04-29T17:03:35.350Z,10.37
2018-04-29T17:06:03.380Z,4.40
2018-04-29T17:08:31.445Z,4.03
2018-04-29T17:10:59.528Z,10.73
2018-04-29T17:13:27.585Z,9.37
2018-04-29T17:15:55.662Z,6.23
2018-04-29T17:18:23.669Z,9.00
2018-04-29T17:20:51.711Z,6.10
2018-04-29T17:23:19.858Z,5.60
2018-04-29T17:25:47.903Z,9.80
2018-04-29T17:28:15.869Z,11.53
2018-04-29T17:30:43.885Z,10.40
2018-04-29T17:33:11.870Z,9.97
2018-04-29T17:35:39.881Z,11.27
2018-04-29T17:38:07.908Z,6.90
2018-04-29T17:40:35.962Z,8.30
2018-04-29T17:43:04.275Z,11.87
2018-04-29T17:45:32.236Z,12.20
2018-04-29T17:48:00.285Z,7.20
2018-04-29T17:50:28.311Z,25.20
2018-04-29T17:52:56.319Z,7.80
2018-04-29T17:55:24.376Z,6.20
2018-04-29T17:57:52.446Z,6.13
2018-04-29T18:00:20.433Z,11.33
2018-04-29T18:02:48.498Z,7.37
2018-04-29T18:05:16.595Z,13.50
2018-04-29T18:07:44.586Z,7.87
2018-04-29T18:10:12.551Z,7.00
2018-04-29T18:12:40.557Z,6.50
2018-04-29T18:15:08.547Z,8.93
2018-04-29T18:17:36.555Z,6.37
2018-04-29T18:20:04.586Z,14.50
2018-04-29T18:22:32.611Z,9.20
2018-04-29T18:25:00.659Z,7.13
2018-04-29T18:27:28.818Z,14.60
2018-04-29T18:29:56.923Z,6.77
2018-04-29T18:32:24.926Z,8.03
2018-04-29T18:34:53.059Z,11.33
2018-04-29T18:37:20.965Z,7.23
2018-04-29T18:39:48.988Z,14.17
2018-04-29T18:42:16.984Z,11.40
2018-04-29T18:44:45.590Z,15.60
2018-04-29T18:47:13.541Z,7.30
2018-04-29T18:49:41.535Z,5.60
2018-04-29T18:52:09.529Z,6.40
2018-04-29T18:54:37.554Z,9.03
2018-04-29T18:57:05.559Z,5.63
2018-04-29T18:59:33.553Z,4.80
2018-04-29T19:02:01.559Z,5.83
2018-04-29T19:04:29.578Z,6.10
2018-04-29T19:06:57.603Z,6.00
2018-04-29T19:09:25.620Z,5.07
2018-04-29T19:11:53.832Z,10.83
2018-04-29T19:14:21.828Z,5.20
2018-04-29T19:16:49.854Z,8.00
2018-04-29T19:19:17.870Z,4.30
2018-04-29T19:21:45.877Z,5.43
2018-04-29T19:24:14.003Z,17.73
2018-04-29T19:26:41.960Z,9.60
2018-04-29T19:29:10.009Z,8.67
2018-04-29T19:31:38.082Z,4.70
2018-04-29T19:34:06.130Z,9.13
2018-04-29T19:36:34.110Z,4.83
2018-04-29T19:39:02.117Z,4.50
2018-04-29T19:41:30.160Z,5.80
2018-04-29T19:43:58.238Z,11.57
2018-04-29T19:46:26.717Z,6.30
2018-04-29T19:48:54.762Z,7.90
2018-04-29T19:51:22.740Z,4.80
2018-04-29T19:53:50.725Z,5.97
2018-04-29T19:56:19.267Z,6.10
2018-04-29T19:58:47.318Z,5.40
2018-04-29T20:01:15.334Z,5.30
2018-04-29T20:03:43.329Z,6.17
2018-04-29T20:06:11.493Z,4.70
2018-04-29T20:08:39.513Z,3.97
2018-04-29T20:11:07.468Z,5.70
2018-04-29T20:13:35.487Z,7.23
2018-04-29T20:16:03.513Z,10.90
2018-04-29T20:18:31.519Z,5.70
2018-04-29T20:20:59.472Z,4.37
2018-04-29T20:23:27.535Z,8.37
2018-04-29T20:25:55.474Z,6.90
2018-04-29T20:28:23.497Z,5.30
2018-04-29T20:30:51.500Z,4.00
2018-04-29T20:33:19.520Z,4.53
2018-04-29T20:35:47.546Z,4.33
2018-04-29T20:38:15.585Z,4.00
2018-04-29T20:40:43.658Z,4.13
2018-04-29T20:43:11.755Z,4.37
2018-04-29T20:45:39.760Z,3.77
2018-04-29T20:48:08.137Z,4.80
2018-04-29T20:50:36.182Z,10.70
2018-04-29T20:53:04.157Z,6.67
2018-04-29T20:55:32.202Z,12.80
2018-04-29T20:58:00.294Z,4.73
2018-04-29T21:00:28.332Z,4.50
2018-04-29T21:02:56.383Z,5.23
2018-04-29T21:05:24.331Z,6.10
2018-04-29T21:07:52.420Z,5.13
2018-04-29T21:10:20.447Z,4.27
2018-04-29T21:12:48.470Z,4.13
2018-04-29T21:15:16.533Z,4.50
2018-04-29T21:17:44.498Z,4.83
2018-04-29T21:20:12.611Z,4.87
2018-04-29T21:22:40.596Z,6.20
2018-04-29T21:25:08.623Z,4.73
2018-04-29T21:27:36.690Z,6.60
2018-04-29T21:30:04.732Z,4.43
2018-04-29T21:32:32.821Z,6.90
2018-04-29T21:35:00.838Z,5.73
2018-04-29T21:37:28.879Z,7.30
2018-04-29T21:39:56.872Z,14.60
2018-04-29T21:42:24.913Z,10.00
2018-04-29T21:44:52.937Z,5.57
2018-04-29T21:47:20.943Z,5.10
2018-04-29T21:49:49.334Z,8.03
2018-04-29T21:52:17.361Z,4.50
2018-04-29T21:54:45.351Z,7.70
2018-04-29T21:57:13.331Z,4.17
2018-04-29T21:59:41.333Z,4.73
2018-04-29T22:02:09.418Z,5.57
2018-04-29T22:04:37.422Z,12.43
2018-04-29T22:07:05.453Z,5.03
2018-04-29T22:09:33.499Z,4.33
2018-04-29T22:12:01.459Z,9.70
2018-04-29T22:14:29.518Z,4.10
2018-04-29T22:16:57.634Z,10.63
2018-04-29T22:19:25.673Z,10.30
2018-04-29T22:21:53.686Z,5.97
2018-04-29T22:24:21.730Z,4.10
2018-04-29T22:26:49.747Z,11.87
2018-04-29T22:29:17.798Z,4.73
2018-04-29T22:31:45.819Z,6.80
2018-04-29T22:34:13.875Z,5.50
2018-04-29T22:36:41.914Z,6.40
2018-04-29T22:39:09.956Z,11.90
2018-04-29T22:41:38.017Z,13.57
2018-04-29T22:44:06.199Z,8.10
2018-04-29T22:46:34.222Z,9.03
2018-04-29T22:49:02.229Z,7.60
2018-04-29T22:51:30.493Z,15.37
2018-04-29T22:53:58.542Z,10.37
2018-04-29T22:56:26.509Z,8.00
2018-04-29T22:58:54.552Z,10.70
2018-04-29T23:01:22.621Z,7.80
2018-04-29T23:03:50.689Z,11.30
2018-04-29T23:06:18.677Z,8.00
2018-04-29T23:08:46.701Z,8.23
2018-04-29T23:11:14.707Z,16.30
2018-04-29T23:13:42.734Z,8.43
2018-04-29T23:16:10.735Z,7.47
2018-04-29T23:18:38.767Z,14.53
2018-04-29T23:21:06.783Z,8.27
2018-04-29T23:23:34.871Z,6.87
2018-04-29T23:26:02.957Z,6.90
2018-04-29T23:28:30.949Z,6.97
2018-04-29T23:30:59.007Z,7.50
2018-04-29T23:33:27.077Z,7.57
2018-04-29T23:35:55.106Z,9.50
2018-04-29T23:38:23.039Z,5.73
2018-04-29T23:40:51.029Z,5.53
2018-04-29T23:43:19.117Z,5.67
2018-04-29T23:45:47.149Z,5.93
2018-04-29T23:48:15.161Z,7.60
2018-04-29T23:50:43.186Z,11.57
2018-04-29T23:53:11.368Z,6.83
2018-04-29T23:55:39.346Z,7.13
2018-04-29T23:58:07.309Z,5.30
